createdAt,value
2023-11-18T00:00:18.989Z,54.00
2023-11-18T00:01:21.735Z,54.00
2023-11-18T00:02:25.990Z,54.00
2023-11-18T00:03:28.732Z,54.00
2023-11-18T00:04:31.690Z,54.00
2023-11-18T00:05:34.291Z,54.00
2023-11-18T00:06:36.899Z,53.67
2023-11-18T00:07:39.772Z,53.00
2023-11-18T00:08:42.410Z,53.00
2023-11-18T00:09:47.152Z,53.00
2023-11-18T00:10:49.797Z,52.17
2023-11-18T00:11:52.470Z,52.00
2023-11-18T00:12:55.049Z,52.00
2023-11-18T00:13:57.694Z,52.00
2023-11-18T00:15:00.365Z,52.00
2023-11-18T00:16:02.970Z,51.00
2023-11-18T00:17:05.677Z,51.00
2023-11-18T00:18:08.402Z,51.00
2023-11-18T00:19:11.007Z,51.00
2023-11-18T00:20:14.995Z,50.17
2023-11-18T00:21:17.993Z,49.33
2023-11-18T00:22:20.884Z,49.00
2023-11-18T00:23:23.503Z,49.00
2023-11-18T00:24:26.069Z,49.00
2023-11-18T00:25:28.652Z,49.00
2023-11-18T00:26:31.245Z,49.00
2023-11-18T00:27:33.911Z,48.33
2023-11-18T00:28:36.544Z,49.00
2023-11-18T00:29:39.171Z,48.50
2023-11-18T00:30:41.841Z,48.00
2023-11-18T00:31:44.504Z,48.00
2023-11-18T00:32:47.439Z,48.00
2023-11-18T00:33:50.062Z,47.33
2023-11-18T00:34:52.652Z,47.00
2023-11-18T00:35:55.235Z,47.00
2023-11-18T00:37:00.756Z,46.67
2023-11-18T00:38:04.062Z,46.00
2023-11-18T00:39:06.734Z,46.00
2023-11-18T00:40:10.688Z,46.00
2023-11-18T00:41:13.818Z,46.00
2023-11-18T00:42:16.773Z,45.83
2023-11-18T00:43:19.490Z,45.00
2023-11-18T00:44:22.992Z,45.00
2023-11-18T00:45:25.644Z,45.00
2023-11-18T00:46:28.304Z,44.83
2023-11-18T00:47:31.338Z,44.00
2023-11-18T00:48:33.991Z,44.00
2023-11-18T00:49:37.250Z,44.00
2023-11-18T00:50:39.961Z,44.00
2023-11-18T00:51:42.557Z,44.00
2023-11-18T00:52:45.284Z,43.00
2023-11-18T00:53:47.913Z,43.00
2023-11-18T00:54:50.511Z,43.00
2023-11-18T00:55:53.134Z,42.17
2023-11-18T00:56:55.767Z,42.00
2023-11-18T00:57:58.353Z,42.00
2023-11-18T00:59:02.501Z,42.50
2023-11-18T01:00:05.517Z,43.00
2023-11-18T01:01:08.283Z,43.00
2023-11-18T01:02:11.074Z,44.00
2023-11-18T01:03:13.854Z,44.00
2023-11-18T01:04:16.688Z,45.17
2023-11-18T01:05:19.296Z,46.67
2023-11-18T01:06:23.295Z,47.00
2023-11-18T01:07:25.917Z,47.00
2023-11-18T01:08:28.533Z,47.00
2023-11-18T01:09:35.928Z,47.00
2023-11-18T01:10:39.574Z,48.67
2023-11-18T01:12:06.853Z,49.00
2023-11-18T01:13:04.715Z,49.00
2023-11-18T01:14:07.696Z,49.00
2023-11-18T01:15:11.814Z,49.00
2023-11-18T01:16:16.040Z,49.50
2023-11-18T01:17:18.675Z,50.50
2023-11-18T01:18:21.835Z,51.00
2023-11-18T01:19:24.846Z,51.50
2023-11-18T01:20:27.636Z,52.83
2023-11-18T01:21:30.195Z,53.17
2023-11-18T01:22:35.846Z,54.67
2023-11-18T01:23:39.822Z,55.00
2023-11-18T01:24:42.497Z,55.00
2023-11-18T01:25:45.372Z,55.50
2023-11-18T01:26:48.045Z,56.00
2023-11-18T01:27:50.635Z,57.00
2023-11-18T01:28:53.234Z,56.17
2023-11-18T01:29:55.844Z,55.33
2023-11-18T01:30:58.460Z,54.33
2023-11-18T01:32:01.264Z,54.00
2023-11-18T01:33:05.235Z,53.00
2023-11-18T01:34:13.335Z,53.17
2023-11-18T01:35:15.934Z,52.83
2023-11-18T01:36:19.309Z,52.00
2023-11-18T01:37:22.965Z,52.00
2023-11-18T01:38:27.287Z,52.33
2023-11-18T01:39:29.870Z,52.50
2023-11-18T01:40:32.925Z,52.00
2023-11-18T01:41:35.767Z,52.00
2023-11-18T01:42:38.377Z,52.00
2023-11-18T01:43:41.316Z,52.67
2023-11-18T01:44:44.321Z,53.00
2023-11-18T01:45:47.977Z,52.67
2023-11-18T01:46:50.735Z,52.00
2023-11-18T01:47:53.493Z,52.17
2023-11-18T01:48:56.117Z,53.00
2023-11-18T01:50:00.775Z,53.50
2023-11-18T01:51:06.269Z,54.00
2023-11-18T01:52:09.747Z,54.00
2023-11-18T01:53:15.305Z,53.17
2023-11-18T01:54:20.349Z,53.83
2023-11-18T01:55:23.263Z,54.00
2023-11-18T01:56:26.490Z,53.50
2023-11-18T01:57:29.119Z,52.33
2023-11-18T01:58:32.273Z,51.17
2023-11-18T01:59:35.367Z,50.50
2023-11-18T02:00:44.315Z,49.67
2023-11-18T02:01:52.777Z,47.83
2023-11-18T02:02:56.158Z,46.17
2023-11-18T02:04:00.645Z,46.00
2023-11-18T02:05:03.502Z,46.00
2023-11-18T02:06:07.311Z,46.50
2023-11-18T02:07:10.688Z,47.00
2023-11-18T02:08:16.330Z,47.00
2023-11-18T02:09:19.960Z,47.00
2023-11-18T02:10:22.668Z,47.00
2023-11-18T02:11:47.236Z,47.00
2023-11-18T02:13:16.589Z,47.00
2023-11-18T02:14:21.756Z,47.67
2023-11-18T02:15:26.345Z,48.00
2023-11-18T02:16:29.589Z,48.00
2023-11-18T02:17:33.199Z,48.00
2023-11-18T02:18:37.329Z,47.50
2023-11-18T02:19:40.968Z,47.50
2023-11-18T02:20:45.037Z,48.00
2023-11-18T02:21:48.949Z,48.00
2023-11-18T02:22:52.000Z,48.00
2023-11-18T02:23:54.686Z,48.83
2023-11-18T02:24:57.321Z,49.67
2023-11-18T02:26:02.513Z,50.00
2023-11-18T02:27:08.900Z,50.00
2023-11-18T02:28:11.509Z,50.83
2023-11-18T02:29:15.402Z,52.00
2023-11-18T02:30:18.889Z,52.00
2023-11-18T02:31:33.236Z,53.00
2023-11-18T02:32:46.074Z,52.17
2023-11-18T02:34:07.692Z,52.00
2023-11-18T02:35:16.844Z,52.00
2023-11-18T02:36:37.044Z,52.00
2023-11-18T02:37:43.553Z,51.17
2023-11-18T02:38:51.500Z,51.00
2023-11-18T02:39:59.734Z,51.00
2023-11-18T02:41:08.076Z,50.83
2023-11-18T02:42:13.665Z,50.00
2023-11-18T02:43:18.105Z,49.17
2023-11-18T02:44:24.410Z,49.00
2023-11-18T02:45:28.476Z,49.00
2023-11-18T02:46:31.292Z,49.00
2023-11-18T02:47:34.601Z,49.00
2023-11-18T02:48:39.196Z,49.00
2023-11-18T02:49:41.778Z,48.17
2023-11-18T02:50:44.382Z,48.50
2023-11-18T02:51:48.847Z,49.00
2023-11-18T02:52:51.674Z,49.83
2023-11-18T02:53:54.293Z,50.00
2023-11-18T02:54:56.899Z,50.00
2023-11-18T02:56:03.801Z,50.00
2023-11-18T02:57:06.506Z,49.83
2023-11-18T02:58:09.241Z,49.00
2023-11-18T02:59:11.817Z,48.33
2023-11-18T03:00:23.420Z,48.00
2023-11-18T03:01:26.630Z,48.00
2023-11-18T03:02:32.117Z,48.67
2023-11-18T03:03:35.007Z,51.00
2023-11-18T03:04:37.655Z,51.17
2023-11-18T03:05:40.843Z,51.00
2023-11-18T03:06:43.435Z,51.00
2023-11-18T03:07:50.858Z,51.00
2023-11-18T03:08:54.108Z,51.00
2023-11-18T03:10:01.081Z,51.00
2023-11-18T03:11:05.930Z,50.50
2023-11-18T03:12:09.242Z,49.83
2023-11-18T03:13:13.421Z,49.17
2023-11-18T03:14:16.225Z,49.50
2023-11-18T03:15:19.183Z,50.00
2023-11-18T03:16:21.794Z,50.00
2023-11-18T03:17:24.426Z,49.33
2023-11-18T03:18:27.133Z,48.67
2023-11-18T03:19:30.610Z,46.67
2023-11-18T03:20:34.789Z,45.17
2023-11-18T03:21:37.884Z,43.67
2023-11-18T03:22:40.530Z,42.17
2023-11-18T03:23:43.234Z,42.00
2023-11-18T03:24:45.815Z,42.00
2023-11-18T03:25:48.405Z,42.00
2023-11-18T03:26:51.944Z,42.00
2023-11-18T03:27:55.873Z,42.00
2023-11-18T03:28:58.520Z,42.00
2023-11-18T03:30:01.277Z,42.00
2023-11-18T03:31:07.793Z,42.17
2023-11-18T03:32:10.413Z,43.00
2023-11-18T03:33:13.068Z,43.83
2023-11-18T03:34:21.230Z,44.00
2023-11-18T03:35:25.767Z,44.00
2023-11-18T03:36:28.787Z,44.00
2023-11-18T03:37:32.414Z,44.00
2023-11-18T03:38:35.253Z,44.00
2023-11-18T03:39:37.826Z,44.17
2023-11-18T03:40:42.676Z,45.00
2023-11-18T03:41:45.751Z,45.00
2023-11-18T03:42:48.446Z,45.33
2023-11-18T03:43:51.092Z,46.00
2023-11-18T03:44:53.742Z,46.50
2023-11-18T03:45:58.135Z,47.00
2023-11-18T03:47:00.832Z,47.50
2023-11-18T03:48:04.348Z,48.50
2023-11-18T03:49:06.965Z,49.00
2023-11-18T03:50:10.282Z,49.83
2023-11-18T03:51:13.017Z,50.00
2023-11-18T03:52:15.619Z,50.00
2023-11-18T03:53:18.225Z,50.00
2023-11-18T03:54:20.778Z,50.00
2023-11-18T03:55:44.278Z,50.00
2023-11-18T03:57:07.410Z,50.00
2023-11-18T03:58:10.333Z,50.00
2023-11-18T03:59:12.994Z,51.67
2023-11-18T04:00:18.783Z,52.83
2023-11-18T04:01:23.024Z,53.00
2023-11-18T04:02:26.275Z,53.00
2023-11-18T04:03:28.970Z,53.00
2023-11-18T04:04:31.673Z,53.67
2023-11-18T04:05:35.684Z,54.00
2023-11-18T04:06:38.264Z,54.00
2023-11-18T04:07:43.893Z,54.00
2023-11-18T04:08:47.095Z,53.33
2023-11-18T04:09:49.719Z,53.00
2023-11-18T04:10:52.315Z,53.00
2023-11-18T04:11:54.919Z,53.83
2023-11-18T04:12:58.296Z,54.17
2023-11-18T04:14:00.968Z,61.50
2023-11-18T04:15:05.794Z,71.17
2023-11-18T04:16:13.503Z,72.33
2023-11-18T04:17:16.169Z,75.50
2023-11-18T04:18:18.936Z,74.17
2023-11-18T04:19:21.522Z,72.17
2023-11-18T04:20:24.614Z,70.83
2023-11-18T04:21:27.243Z,69.83
2023-11-18T04:22:29.982Z,69.00
2023-11-18T04:23:34.079Z,68.17
2023-11-18T04:24:36.680Z,67.17
2023-11-18T04:25:39.338Z,68.17
2023-11-18T04:26:42.509Z,71.00
2023-11-18T04:27:47.044Z,134.67
2023-11-18T04:28:50.738Z,155.83
2023-11-18T04:29:53.341Z,127.83
2023-11-18T04:30:55.971Z,105.17
2023-11-18T04:31:58.687Z,100.33
2023-11-18T04:33:01.719Z,89.33
2023-11-18T04:34:05.514Z,82.17
2023-11-18T04:35:08.508Z,77.33
2023-11-18T04:36:11.299Z,71.67
2023-11-18T04:37:13.899Z,69.83
2023-11-18T04:38:16.536Z,66.17
2023-11-18T04:39:19.122Z,66.33
2023-11-18T04:40:24.325Z,63.17
2023-11-18T04:41:27.283Z,61.67
2023-11-18T04:42:30.953Z,60.00
2023-11-18T04:43:42.360Z,58.50
2023-11-18T04:44:47.940Z,59.33
2023-11-18T04:45:50.724Z,60.00
2023-11-18T04:46:53.316Z,61.00
2023-11-18T04:47:56.046Z,61.83
2023-11-18T04:48:58.820Z,66.50
2023-11-18T04:50:01.511Z,70.00
2023-11-18T04:51:04.121Z,70.00
2023-11-18T04:52:07.660Z,68.83
2023-11-18T04:53:12.044Z,65.83
2023-11-18T04:54:15.434Z,62.00
2023-11-18T04:55:18.344Z,59.50
2023-11-18T04:56:20.970Z,58.50
2023-11-18T04:57:23.590Z,57.83
2023-11-18T04:58:26.196Z,57.83
2023-11-18T04:59:28.803Z,58.00
2023-11-18T05:00:31.421Z,58.00
2023-11-18T05:01:34.708Z,58.33
2023-11-18T05:02:38.573Z,59.00
2023-11-18T05:03:41.310Z,59.67
2023-11-18T05:04:43.992Z,60.50
2023-11-18T05:05:46.591Z,61.00
2023-11-18T05:06:49.921Z,61.17
2023-11-18T05:07:52.566Z,61.50
2023-11-18T05:08:55.909Z,61.50
2023-11-18T05:09:58.608Z,62.50
2023-11-18T05:11:01.348Z,63.00
2023-11-18T05:12:04.337Z,63.00
2023-11-18T05:13:08.137Z,63.33
2023-11-18T05:14:10.779Z,62.83
2023-11-18T05:15:14.029Z,62.00
2023-11-18T05:16:16.690Z,61.83
2023-11-18T05:17:19.405Z,62.00
2023-11-18T05:18:22.458Z,62.00
2023-11-18T05:19:25.106Z,62.00
2023-11-18T05:20:28.779Z,61.00
2023-11-18T05:21:31.414Z,60.83
2023-11-18T05:22:34.039Z,59.33
2023-11-18T05:23:37.008Z,58.17
2023-11-18T05:24:41.703Z,58.00
2023-11-18T05:25:45.627Z,56.33
2023-11-18T05:26:48.346Z,55.33
2023-11-18T05:27:50.984Z,55.17
2023-11-18T05:28:53.604Z,54.33
2023-11-18T05:29:56.233Z,53.00
2023-11-18T05:31:03.634Z,53.00
2023-11-18T05:32:06.837Z,53.00
2023-11-18T05:33:10.469Z,53.00
2023-11-18T05:34:14.009Z,55.00
2023-11-18T05:35:16.657Z,58.67
2023-11-18T05:36:27.929Z,60.00
2023-11-18T05:37:30.821Z,59.00
2023-11-18T05:38:36.179Z,58.17
2023-11-18T05:39:44.216Z,57.17
2023-11-18T05:40:57.713Z,56.83
2023-11-18T05:42:00.903Z,56.00
2023-11-18T05:43:06.547Z,55.50
2023-11-18T05:44:18.457Z,55.00
2023-11-18T05:45:33.058Z,54.17
2023-11-18T05:46:36.380Z,53.67
2023-11-18T05:47:39.115Z,53.00
2023-11-18T05:48:45.625Z,52.67
2023-11-18T05:49:48.242Z,52.00
2023-11-18T05:50:51.049Z,52.83
2023-11-18T05:51:53.659Z,54.50
2023-11-18T05:52:56.691Z,55.83
2023-11-18T05:53:59.363Z,57.50
2023-11-18T05:55:02.005Z,61.00
2023-11-18T05:56:05.959Z,61.00
2023-11-18T05:57:08.568Z,61.00
2023-11-18T05:58:11.296Z,61.50
2023-11-18T05:59:15.277Z,61.33
2023-11-18T06:00:25.460Z,61.00
2023-11-18T06:01:33.496Z,61.00
2023-11-18T06:02:37.563Z,61.00
2023-11-18T06:03:41.116Z,61.00
2023-11-18T06:04:43.859Z,61.33
2023-11-18T06:05:46.463Z,62.00
2023-11-18T06:06:49.061Z,63.00
2023-11-18T06:07:51.727Z,64.00
2023-11-18T06:08:54.981Z,66.17
2023-11-18T06:09:59.061Z,67.00
2023-11-18T06:11:06.655Z,66.50
2023-11-18T06:12:11.487Z,65.83
2023-11-18T06:13:14.208Z,65.17
2023-11-18T06:14:18.266Z,66.00
2023-11-18T06:15:22.466Z,66.50
2023-11-18T06:16:26.316Z,67.00
2023-11-18T06:17:29.353Z,67.00
2023-11-18T06:18:33.417Z,67.00
2023-11-18T06:19:36.089Z,67.00
2023-11-18T06:20:39.643Z,67.00
2023-11-18T06:21:42.374Z,67.00
2023-11-18T06:22:45.012Z,67.33
2023-11-18T06:23:48.952Z,69.00
2023-11-18T06:24:53.107Z,69.33
2023-11-18T06:25:56.004Z,71.00
2023-11-18T06:27:00.869Z,72.33
2023-11-18T06:28:03.603Z,71.67
2023-11-18T06:29:07.299Z,70.33
2023-11-18T06:30:13.011Z,68.50
2023-11-18T06:31:15.627Z,68.17
2023-11-18T06:32:18.300Z,69.00
2023-11-18T06:33:24.629Z,70.00
2023-11-18T06:34:28.233Z,71.00
2023-11-18T06:35:30.863Z,72.00
2023-11-18T06:36:33.480Z,72.00
2023-11-18T06:37:36.185Z,72.00
2023-11-18T06:38:39.138Z,72.00
2023-11-18T06:39:48.930Z,73.17
2023-11-18T06:40:54.282Z,74.00
2023-11-18T06:41:59.578Z,73.67
2023-11-18T06:43:04.131Z,73.17
2023-11-18T06:44:18.707Z,74.33
2023-11-18T06:45:23.272Z,75.50
2023-11-18T06:46:34.990Z,76.17
2023-11-18T06:47:37.981Z,79.17
2023-11-18T06:48:41.917Z,88.67
2023-11-18T06:49:44.576Z,99.00
2023-11-18T06:50:47.760Z,95.67
2023-11-18T06:51:50.346Z,93.33
2023-11-18T06:52:52.933Z,91.67
2023-11-18T06:53:59.086Z,90.67
2023-11-18T06:55:01.697Z,90.00
2023-11-18T06:56:04.522Z,90.00
2023-11-18T06:57:08.448Z,90.00
2023-11-18T06:58:11.102Z,89.17
2023-11-18T06:59:16.465Z,87.83
2023-11-18T07:00:21.923Z,86.50
2023-11-18T07:01:24.498Z,85.17
2023-11-18T07:02:27.154Z,86.00
2023-11-18T07:03:29.890Z,85.67
2023-11-18T07:04:32.502Z,85.17
2023-11-18T07:05:35.495Z,86.33
2023-11-18T07:06:41.002Z,87.33
2023-11-18T07:07:44.600Z,89.17
2023-11-18T07:08:47.325Z,89.67
2023-11-18T07:09:52.402Z,89.33
2023-11-18T07:10:55.151Z,88.50
2023-11-18T07:11:58.090Z,84.50
2023-11-18T07:13:00.832Z,81.83
2023-11-18T07:14:04.453Z,78.83
2023-11-18T07:15:07.815Z,73.50
2023-11-18T07:16:10.547Z,72.00
2023-11-18T07:17:13.897Z,70.83
2023-11-18T07:18:17.485Z,69.00
2023-11-18T07:19:22.039Z,69.50
2023-11-18T07:20:25.214Z,71.17
2023-11-18T07:21:27.847Z,73.00
2023-11-18T07:22:30.566Z,74.00
2023-11-18T07:23:33.746Z,74.50
2023-11-18T07:24:36.312Z,76.17
2023-11-18T07:25:38.911Z,78.83
2023-11-18T07:26:41.520Z,79.00
2023-11-18T07:27:44.105Z,79.67
2023-11-18T07:28:47.002Z,83.50
2023-11-18T07:29:49.660Z,89.33
2023-11-18T07:30:52.283Z,90.33
2023-11-18T07:31:57.829Z,89.00
2023-11-18T07:33:02.521Z,88.83
2023-11-18T07:34:06.949Z,88.00
2023-11-18T07:35:10.697Z,88.00
2023-11-18T07:36:13.327Z,88.00
2023-11-18T07:37:15.920Z,88.00
2023-11-18T07:38:21.451Z,88.67
2023-11-18T07:39:25.818Z,90.00
2023-11-18T07:40:29.645Z,90.00
2023-11-18T07:41:33.774Z,90.67
2023-11-18T07:42:36.913Z,89.17
2023-11-18T07:43:41.743Z,86.17
2023-11-18T07:44:44.377Z,86.00
2023-11-18T07:45:50.676Z,86.00
2023-11-18T07:46:53.281Z,86.33
2023-11-18T07:47:56.558Z,87.00
2023-11-18T07:48:59.209Z,87.00
2023-11-18T07:50:05.721Z,87.00
2023-11-18T07:51:09.555Z,87.00
2023-11-18T07:52:12.186Z,85.33
2023-11-18T07:53:15.657Z,83.50
2023-11-18T07:54:19.496Z,83.33
2023-11-18T07:55:24.465Z,87.33
2023-11-18T07:56:28.264Z,101.17
2023-11-18T07:57:30.884Z,106.00
2023-11-18T07:58:33.503Z,103.33
2023-11-18T07:59:36.121Z,101.33
2023-11-18T08:00:40.225Z,99.67
2023-11-18T08:01:45.879Z,96.83
2023-11-18T08:02:48.618Z,93.83
2023-11-18T08:03:54.383Z,92.17
2023-11-18T08:04:57.944Z,93.00
2023-11-18T08:06:00.540Z,93.00
2023-11-18T08:07:05.728Z,93.00
2023-11-18T08:08:08.938Z,97.00
2023-11-18T08:09:14.508Z,106.50
2023-11-18T08:10:20.250Z,107.83
2023-11-18T08:11:24.734Z,106.00
2023-11-18T08:12:27.410Z,105.00
2023-11-18T08:13:29.998Z,106.83
2023-11-18T08:14:33.610Z,106.17
2023-11-18T08:15:39.178Z,106.17
2023-11-18T08:16:41.869Z,106.83
2023-11-18T08:17:44.889Z,120.50
2023-11-18T08:18:47.548Z,127.50
2023-11-18T08:19:51.170Z,123.83
2023-11-18T08:20:53.737Z,125.67
2023-11-18T08:21:56.334Z,123.00
2023-11-18T08:22:59.183Z,120.50
2023-11-18T08:24:02.846Z,118.33
2023-11-18T08:25:09.590Z,110.17
2023-11-18T08:26:13.448Z,108.67
2023-11-18T08:27:16.172Z,108.33
2023-11-18T08:28:18.799Z,107.17
2023-11-18T08:29:22.663Z,106.00
2023-11-18T08:30:25.353Z,102.50
2023-11-18T08:31:28.266Z,101.83
2023-11-18T08:32:30.899Z,100.00
2023-11-18T08:33:34.420Z,100.00
2023-11-18T08:34:38.842Z,100.00
2023-11-18T08:35:43.345Z,97.67
2023-11-18T08:36:45.958Z,93.00
2023-11-18T08:37:49.064Z,88.00
2023-11-18T08:38:51.726Z,83.50
2023-11-18T08:39:54.393Z,84.50
2023-11-18T08:40:57.057Z,82.17
2023-11-18T08:41:59.985Z,83.50
2023-11-18T08:43:02.553Z,85.33
2023-11-18T08:44:17.874Z,87.17
2023-11-18T08:45:30.648Z,88.33
2023-11-18T08:46:33.703Z,88.33
2023-11-18T08:47:36.977Z,89.00
2023-11-18T08:48:39.591Z,89.00
2023-11-18T08:49:47.510Z,89.17
2023-11-18T08:50:50.562Z,90.83
2023-11-18T08:51:57.893Z,91.00
2023-11-18T08:53:01.279Z,90.50
2023-11-18T08:54:23.331Z,86.83
2023-11-18T08:55:40.678Z,83.33
2023-11-18T08:56:45.356Z,79.83
2023-11-18T08:58:00.836Z,79.00
2023-11-18T08:59:03.571Z,84.83
2023-11-18T09:00:21.300Z,92.50
2023-11-18T09:01:24.956Z,95.00
2023-11-18T09:02:33.013Z,93.17
2023-11-18T09:03:37.676Z,88.00
2023-11-18T09:04:44.326Z,87.17
2023-11-18T09:05:59.783Z,86.83
2023-11-18T09:07:02.544Z,78.83
2023-11-18T09:08:07.400Z,76.83
2023-11-18T09:09:12.601Z,74.50
2023-11-18T09:10:15.175Z,71.00
2023-11-18T09:11:18.402Z,72.17
2023-11-18T09:12:21.391Z,64.83
2023-11-18T09:13:31.278Z,62.50
2023-11-18T09:14:35.030Z,66.50
2023-11-18T09:15:38.208Z,67.67
2023-11-18T09:16:43.053Z,68.83
2023-11-18T09:17:45.939Z,68.83
2023-11-18T09:18:48.638Z,69.00
2023-11-18T09:19:52.521Z,69.67
2023-11-18T09:21:00.443Z,74.33
2023-11-18T09:22:03.073Z,87.83
2023-11-18T09:23:06.289Z,88.50
2023-11-18T09:24:13.420Z,87.50
2023-11-18T09:25:16.997Z,82.17
2023-11-18T09:26:19.818Z,71.67
2023-11-18T09:27:24.103Z,63.50
2023-11-18T09:28:29.800Z,57.00
2023-11-18T09:29:33.613Z,55.33
2023-11-18T09:30:39.995Z,52.50
2023-11-18T09:31:43.489Z,54.50
2023-11-18T09:32:49.029Z,56.67
2023-11-18T09:33:54.735Z,57.83
2023-11-18T09:34:57.313Z,58.17
2023-11-18T09:36:00.694Z,59.17
2023-11-18T09:37:03.339Z,60.00
2023-11-18T09:38:07.288Z,60.50
2023-11-18T09:39:10.135Z,60.00
2023-11-18T09:40:15.864Z,59.67
2023-11-18T09:41:18.685Z,59.00
2023-11-18T09:42:25.492Z,59.00
2023-11-18T09:43:28.109Z,58.50
2023-11-18T09:44:31.539Z,56.17
2023-11-18T09:45:34.629Z,53.83
2023-11-18T09:46:42.134Z,46.83
2023-11-18T09:47:48.645Z,46.50
2023-11-18T09:49:03.135Z,47.83
2023-11-18T09:50:11.342Z,49.00
2023-11-18T09:51:24.435Z,49.67
2023-11-18T09:52:27.856Z,50.00
2023-11-18T09:53:38.323Z,49.83
2023-11-18T09:54:53.539Z,51.33
2023-11-18T09:56:11.135Z,53.33
2023-11-18T09:57:27.558Z,59.50
2023-11-18T09:58:42.472Z,68.00
2023-11-18T10:00:35.986Z,83.00
2023-11-18T10:01:40.720Z,103.50
2023-11-18T10:02:45.806Z,114.83
2023-11-18T10:03:50.498Z,99.33
2023-11-18T10:04:58.759Z,88.17
2023-11-18T10:06:06.141Z,81.67
2023-11-18T10:07:11.418Z,76.17
2023-11-18T10:08:17.605Z,66.17
2023-11-18T10:09:29.550Z,60.83
2023-11-18T10:10:38.277Z,61.17
2023-11-18T10:11:42.482Z,61.50
2023-11-18T10:12:46.167Z,70.00
2023-11-18T10:13:50.081Z,88.17
2023-11-18T10:14:53.452Z,94.17
2023-11-18T10:15:58.553Z,89.17
2023-11-18T10:17:08.020Z,87.17
2023-11-18T10:18:23.216Z,86.83
2023-11-18T10:19:27.306Z,84.67
2023-11-18T10:20:52.413Z,81.50
2023-11-18T10:21:58.032Z,80.83
2023-11-18T10:23:13.280Z,78.83
2023-11-18T10:24:20.670Z,69.83
2023-11-18T10:25:26.730Z,65.83
2023-11-18T10:26:31.053Z,64.50
2023-11-18T10:27:35.582Z,60.50
2023-11-18T10:28:39.218Z,60.17
2023-11-18T10:29:42.251Z,62.33
2023-11-18T10:30:52.067Z,63.00
2023-11-18T10:32:09.048Z,63.83
2023-11-18T10:33:12.734Z,67.33
2023-11-18T10:34:19.016Z,68.00
2023-11-18T10:35:22.145Z,66.67
2023-11-18T10:36:25.376Z,63.67
2023-11-18T10:37:32.904Z,61.33
2023-11-18T10:38:50.900Z,61.17
2023-11-18T10:39:54.195Z,62.00
2023-11-18T10:40:58.734Z,62.00
2023-11-18T10:42:04.035Z,62.67
2023-11-18T10:43:11.495Z,63.00
2023-11-18T10:44:17.338Z,63.00
2023-11-18T10:45:28.860Z,63.00
2023-11-18T10:46:33.464Z,63.00
2023-11-18T10:47:40.465Z,62.50
2023-11-18T10:48:49.111Z,61.83
2023-11-18T10:49:52.492Z,63.50
2023-11-18T10:50:55.428Z,72.67
2023-11-18T10:51:58.201Z,82.50
2023-11-18T10:53:06.430Z,79.17
2023-11-18T10:54:15.173Z,78.50
2023-11-18T10:55:20.545Z,81.00
2023-11-18T10:56:30.129Z,80.83
2023-11-18T10:57:35.381Z,81.33
2023-11-18T10:58:42.274Z,80.00
2023-11-18T11:00:05.491Z,81.67
2023-11-18T11:01:12.769Z,84.17
2023-11-18T11:02:25.342Z,79.50
2023-11-18T11:03:34.551Z,71.50
2023-11-18T11:04:45.060Z,74.67
2023-11-18T11:05:48.287Z,83.33
2023-11-18T11:06:55.535Z,90.17
2023-11-18T11:07:58.462Z,97.50
2023-11-18T11:09:01.104Z,109.00
2023-11-18T11:10:05.690Z,107.00
2023-11-18T11:11:09.626Z,101.00
2023-11-18T11:12:16.501Z,98.50
2023-11-18T11:13:19.703Z,88.83
2023-11-18T11:14:25.561Z,78.50
2023-11-18T11:15:42.063Z,73.50
2023-11-18T11:16:56.707Z,72.83
2023-11-18T11:18:29.139Z,74.50
2023-11-18T11:19:46.228Z,76.00
2023-11-18T11:21:08.696Z,76.50
2023-11-18T11:22:22.373Z,77.00
2023-11-18T11:23:50.963Z,76.00
2023-11-18T11:25:10.304Z,72.83
2023-11-18T11:26:42.570Z,73.00
2023-11-18T11:27:55.217Z,63.33
2023-11-18T11:29:14.312Z,57.17
2023-11-18T11:30:24.096Z,56.50
2023-11-18T11:31:45.617Z,57.33
2023-11-18T11:33:10.060Z,52.33
2023-11-18T11:34:21.649Z,54.00
2023-11-18T11:35:28.235Z,55.00
2023-11-18T11:36:37.486Z,54.83
2023-11-18T11:37:43.358Z,54.83
2023-11-18T11:38:47.988Z,55.17
2023-11-18T11:39:54.905Z,51.50
2023-11-18T11:41:02.121Z,48.83
2023-11-18T11:42:05.210Z,50.00
2023-11-18T11:43:11.815Z,47.83
2023-11-18T11:44:15.059Z,44.33
2023-11-18T11:45:23.664Z,40.67
2023-11-18T11:46:34.531Z,40.50
2023-11-18T11:47:44.566Z,42.00
2023-11-18T11:48:49.103Z,43.00
2023-11-18T11:50:01.753Z,43.00
2023-11-18T11:51:15.743Z,40.50
2023-11-18T11:52:29.461Z,34.33
2023-11-18T11:53:46.718Z,32.50
2023-11-18T11:55:30.435Z,31.00
2023-11-18T11:56:50.599Z,33.17
2023-11-18T11:57:59.550Z,34.67
2023-11-18T11:59:04.061Z,35.83
2023-11-18T12:00:19.906Z,35.00
2023-11-18T12:01:36.745Z,34.00
2023-11-18T12:02:41.888Z,32.17
2023-11-18T12:03:46.561Z,27.67
2023-11-18T12:04:53.862Z,27.00
2023-11-18T12:05:57.578Z,27.50
2023-11-18T12:07:09.253Z,28.00
2023-11-18T12:08:19.810Z,26.33
2023-11-18T12:09:22.918Z,25.50
2023-11-18T12:10:32.343Z,25.17
2023-11-18T12:11:40.830Z,26.00
2023-11-18T12:12:43.471Z,26.00
2023-11-18T12:14:14.544Z,27.00
2023-11-18T12:15:49.821Z,28.83
2023-11-18T12:17:10.120Z,34.17
2023-11-18T12:18:14.433Z,36.83
2023-11-18T12:19:49.400Z,38.00
2023-11-18T12:20:56.540Z,42.33
2023-11-18T12:22:02.100Z,44.33
2023-11-18T12:23:15.528Z,43.17
2023-11-18T12:24:23.558Z,42.33
2023-11-18T12:25:28.534Z,42.00
2023-11-18T12:26:39.705Z,41.67
2023-11-18T12:27:42.371Z,42.00
2023-11-18T12:28:47.179Z,42.50
2023-11-18T12:29:51.986Z,42.83
2023-11-18T12:30:58.972Z,42.00
2023-11-18T12:32:07.094Z,41.17
2023-11-18T12:33:32.582Z,41.00
2023-11-18T12:34:54.988Z,41.00
2023-11-18T12:36:09.329Z,41.00
2023-11-18T12:37:42.286Z,44.50
2023-11-18T12:39:04.453Z,47.83
2023-11-18T12:40:19.206Z,46.83
2023-11-18T12:41:34.361Z,46.00
2023-11-18T12:42:55.174Z,45.67
2023-11-18T12:44:36.709Z,44.00
2023-11-18T12:46:06.889Z,42.00
2023-11-18T12:47:16.315Z,43.83
2023-11-18T12:48:28.218Z,54.00
2023-11-18T12:49:31.636Z,64.83
2023-11-18T12:50:37.065Z,71.00
2023-11-18T12:51:40.126Z,72.83
2023-11-18T12:52:45.576Z,71.83
2023-11-18T12:53:51.601Z,68.17
2023-11-18T12:54:59.645Z,66.00
2023-11-18T12:56:02.603Z,63.33
2023-11-18T12:57:08.569Z,58.17
2023-11-18T12:58:12.989Z,51.17
2023-11-18T12:59:22.420Z,49.00
2023-11-18T13:00:29.031Z,49.00
2023-11-18T13:01:35.174Z,55.67
2023-11-18T13:02:40.417Z,65.50
2023-11-18T13:03:45.350Z,67.83
2023-11-18T13:04:51.415Z,67.33
2023-11-18T13:05:54.623Z,69.67
2023-11-18T13:06:57.469Z,71.00
2023-11-18T13:08:02.445Z,71.33
2023-11-18T13:09:10.987Z,70.00
2023-11-18T13:10:16.713Z,67.33
2023-11-18T13:11:19.648Z,69.00
2023-11-18T13:12:25.010Z,71.33
2023-11-18T13:13:28.156Z,70.00
2023-11-18T13:14:31.993Z,66.33
2023-11-18T13:15:35.582Z,64.67
2023-11-18T13:16:38.495Z,69.83
2023-11-18T13:17:41.999Z,139.67
2023-11-18T13:18:52.795Z,174.00
2023-11-18T13:19:55.566Z,126.83
2023-11-18T13:20:59.207Z,103.33
2023-11-18T13:22:09.141Z,71.50
2023-11-18T13:23:11.827Z,58.33
2023-11-18T13:24:14.433Z,60.00
2023-11-18T13:25:18.633Z,62.17
2023-11-18T13:26:22.236Z,67.00
2023-11-18T13:27:26.886Z,69.67
2023-11-18T13:28:29.465Z,71.83
2023-11-18T13:29:35.431Z,74.50
2023-11-18T13:30:40.917Z,73.17
2023-11-18T13:31:44.192Z,72.83
2023-11-18T13:32:47.395Z,68.83
2023-11-18T13:33:50.370Z,62.67
2023-11-18T13:34:53.332Z,56.00
2023-11-18T13:35:56.154Z,54.50
2023-11-18T13:36:58.793Z,55.50
2023-11-18T13:38:01.557Z,56.00
2023-11-18T13:39:07.945Z,56.33
2023-11-18T13:40:10.981Z,57.83
2023-11-18T13:41:14.730Z,64.00
2023-11-18T13:42:25.438Z,87.33
2023-11-18T13:43:28.041Z,88.50
2023-11-18T13:44:39.796Z,85.17
2023-11-18T13:45:43.780Z,82.67
2023-11-18T13:46:46.664Z,82.33
2023-11-18T13:47:58.748Z,85.33
2023-11-18T13:49:01.589Z,86.67
2023-11-18T13:50:09.338Z,88.17
2023-11-18T13:51:16.900Z,104.33
2023-11-18T13:52:20.569Z,108.17
2023-11-18T13:53:23.788Z,116.33
2023-11-18T13:54:28.110Z,127.83
2023-11-18T13:55:33.308Z,123.67
2023-11-18T13:56:36.172Z,111.67
2023-11-18T13:57:39.214Z,108.17
2023-11-18T13:58:44.199Z,107.00
2023-11-18T13:59:46.820Z,103.17
2023-11-18T14:00:50.686Z,92.67
2023-11-18T14:01:55.580Z,90.00
2023-11-18T14:02:58.856Z,89.50
2023-11-18T14:04:05.628Z,89.33